Time;durP1;ratioP1;P1;durP2;ratioP2;P2;SDS_P1;SDS_P2;PMS_P1;PMS_P2;Temp;Humidity;BMP_temperature;BMP_pressure;BME280_temperature;BME280_humidity;BME280_pressure;Samples;Min_cycle;Max_cycle;Signal;HPM_P1;HPM_P2
2024/04/22 00:08:05;;;;;;;1.30;0.90;;;0.30;99.90;;;;;;22521847;26;20040;-38
2024/04/22 00:18:07;;;;;;;1.92;1.10;;;0.50;99.90;;;;;;22526594;26;20340;-37
2024/04/22 00:28:09;;;;;;;2.05;1.33;;;0.70;99.90;;;;;;22534977;26;20023;-37
2024/04/22 00:38:11;;;;;;;1.65;1.40;;;0.60;99.90;;;;;;22688121;26;20375;-37
2024/04/22 00:48:16;;;;;;;2.17;1.65;;;0.50;99.90;;;;;;22675869;26;20027;-37
2024/04/22 00:58:18;;;;;;;0.93;0.82;;;0.40;99.90;;;;;;22669524;26;20383;-37
2024/04/22 01:08:21;;;;;;;0.80;0.50;;;0.30;99.90;;;;;;22608934;26;20367;-37
2024/04/22 01:18:27;;;;;;;0.50;0.38;;;0.20;99.90;;;;;;22671872;26;20094;-37
2024/04/22 01:28:29;;;;;;;0.80;0.30;;;0.10;99.90;;;;;;22702985;26;20038;-37
2024/04/22 01:38:31;;;;;;;0.55;0.32;;;0.10;99.90;;;;;;22656089;26;20103;-37
2024/04/22 01:48:33;;;;;;;0.30;0.20;;;0.20;99.90;;;;;;22667803;26;20035;-37
2024/04/22 01:58:34;;;;;;;0.20;0.17;;;0.20;99.90;;;;;;22685231;26;20030;-38
2024/04/22 02:08:36;;;;;;;0.10;0.10;;;0.10;99.90;;;;;;22697896;26;20031;-37
2024/04/22 02:18:38;;;;;;;0.20;0.10;;;0.10;99.90;;;;;;22581655;26;20093;-37
2024/04/22 02:28:40;;;;;;;0.15;0.15;;;0.10;99.90;;;;;;22697529;26;20099;-37
2024/04/22 02:38:42;;;;;;;0.30;0.20;;;0.10;99.90;;;;;;22714385;26;20025;-37
2024/04/22 02:48:44;;;;;;;0.17;0.15;;;0.10;99.90;;;;;;22673677;26;20027;-37
2024/04/22 02:58:46;;;;;;;0.20;0.20;;;0.00;99.90;;;;;;22645016;26;20093;-37
2024/04/22 03:08:50;;;;;;;0.57;0.20;;;0.10;99.90;;;;;;22622774;26;20026;-37
2024/04/22 03:18:52;;;;;;;0.22;0.20;;;0.10;99.90;;;;;;22679213;26;20029;-37
2024/04/22 03:28:53;;;;;;;0.40;0.20;;;0.10;99.90;;;;;;22709792;26;20026;-37
2024/04/22 03:38:55;;;;;;;0.10;0.10;;;0.00;99.90;;;;;;22664317;26;20026;-37
2024/04/22 03:59:18;;;;;;;0.20;0.20;;;-0.20;99.90;;;;;;22704158;26;20484;-37
2024/04/22 04:09:20;;;;;;;0.40;0.20;;;-0.20;99.90;;;;;;22675888;26;20484;-37
2024/04/22 04:19:22;;;;;;;0.77;0.20;;;-0.20;99.90;;;;;;22659905;26;20078;-37
2024/04/22 04:29:24;;;;;;;1.05;0.40;;;-0.20;99.90;;;;;;22631093;26;20504;-37
2024/04/22 04:39:26;;;;;;;1.00;0.60;;;-0.30;99.90;;;;;;22576405;26;20034;-36
2024/04/22 04:49:30;;;;;;;0.20;0.10;;;-0.20;99.90;;;;;;22555040;26;20031;-36
2024/04/22 04:59:35;;;;;;;0.20;0.15;;;-0.20;99.90;;;;;;22536359;26;20062;-37
2024/04/22 05:09:37;;;;;;;0.50;0.30;;;-0.20;99.90;;;;;;22617988;26;21031;-36
2024/04/22 05:19:39;;;;;;;0.50;0.30;;;-0.20;99.90;;;;;;22521077;26;20555;-36
2024/04/22 05:29:41;;;;;;;0.30;0.20;;;-0.20;99.90;;;;;;22701503;26;20030;-37
2024/04/22 05:39:43;;;;;;;0.17;0.10;;;-0.20;99.90;;;;;;22659047;26;20480;-37
2024/04/22 05:49:45;;;;;;;0.10;0.05;;;-0.20;99.90;;;;;;22551640;26;20123;-37
2024/04/22 05:59:47;;;;;;;0.10;0.05;;;-0.20;99.90;;;;;;22562505;26;20089;-37
2024/04/22 06:09:48;;;;;;;0.57;0.30;;;-0.10;99.90;;;;;;22564428;26;20097;-37
2024/04/22 06:19:50;;;;;;;1.15;0.55;;;-0.10;99.90;;;;;;22565860;26;20379;-37
2024/04/22 06:29:52;;;;;;;2.35;1.10;;;-0.10;99.90;;;;;;22587774;26;20031;-37
2024/04/22 06:39:54;;;;;;;2.03;1.10;;;-0.10;99.90;;;;;;22561701;26;20026;-37
2024/04/22 06:49:56;;;;;;;2.45;1.40;;;-0.20;99.90;;;;;;22560406;26;20065;-37
2024/04/22 06:59:57;;;;;;;2.55;1.50;;;-0.20;99.90;;;;;;22559462;26;20035;-37
2024/04/22 07:09:59;;;;;;;2.50;1.40;;;-0.30;99.90;;;;;;22559384;26;20031;-36
2024/04/22 07:20:01;;;;;;;1.88;1.48;;;-0.20;99.90;;;;;;22559104;26;20471;-37
2024/04/22 07:30:04;;;;;;;2.28;1.33;;;0.00;99.90;;;;;;22558042;26;20066;-37
2024/04/22 07:40:17;;;;;;;1.30;0.73;;;0.00;99.90;;;;;;22639107;26;20022;-37
2024/04/22 07:50:20;;;;;;;1.80;0.90;;;0.00;99.90;;;;;;22656112;26;20033;-37
2024/04/22 08:00:23;;;;;;;2.00;0.70;;;0.30;99.90;;;;;;22587407;26;20035;-37
2024/04/22 08:10:26;;;;;;;1.17;0.80;;;0.40;99.90;;;;;;22554549;26;20558;-36
2024/04/22 08:20:28;;;;;;;1.58;0.73;;;0.50;99.90;;;;;;22558418;26;20042;-37
2024/04/22 08:30:29;;;;;;;1.02;0.50;;;0.50;99.90;;;;;;22552863;26;20030;-45
2024/04/22 08:40:31;;;;;;;1.15;0.60;;;0.60;99.90;;;;;;22556810;26;20062;-47
2024/04/22 08:50:36;;;;;;;1.13;0.75;;;0.60;99.90;;;;;;22324467;26;20008;-44
2024/04/22 09:00:39;;;;;;;1.00;0.55;;;0.60;99.90;;;;;;22242914;26;20420;-44
2024/04/22 09:10:41;;;;;;;1.58;0.90;;;0.30;99.90;;;;;;22244689;26;20007;-45
2024/04/22 09:20:42;;;;;;;1.65;0.70;;;0.40;99.90;;;;;;22287759;26;20174;-46
2024/04/22 09:30:46;;;;;;;1.50;0.88;;;0.40;99.90;;;;;;22545035;26;20027;-44
2024/04/22 09:40:49;;;;;;;1.20;0.82;;;0.30;99.90;;;;;;22549221;26;20031;-44
2024/04/22 09:50:53;;;;;;;1.45;0.90;;;0.20;99.90;;;;;;22546279;26;20482;-47
2024/04/22 10:00:55;;;;;;;2.08;0.88;;;0.40;99.90;;;;;;22544260;26;20043;-44
2024/04/22 10:11:07;;;;;;;2.17;1.02;;;0.70;99.90;;;;;;22551535;26;20093;-44
2024/04/22 10:21:10;;;;;;;1.20;0.88;;;0.50;99.90;;;;;;22451018;26;20031;-44
2024/04/22 10:31:22;;;;;;;2.47;0.45;;;0.60;99.90;;;;;;22537514;26;20082;-46
2024/04/22 10:41:24;;;;;;;1.38;0.80;;;0.60;99.90;;;;;;22550769;26;20391;-45
2024/04/22 10:51:26;;;;;;;0.90;0.45;;;0.90;99.90;;;;;;22587552;26;20095;-44
2024/04/22 11:01:44;;;;;;;0.98;0.55;;;0.80;99.90;;;;;;22643629;26;20027;-44
2024/04/22 11:11:46;;;;;;;0.73;0.45;;;1.10;99.90;;;;;;22550974;26;20026;-45
2024/04/22 11:21:47;;;;;;;1.23;0.70;;;1.00;99.90;;;;;;22557055;26;20031;-46
2024/04/22 11:31:52;;;;;;;1.67;0.73;;;1.00;99.90;;;;;;22555872;26;20039;-44
2024/04/22 11:41:55;;;;;;;1.58;0.85;;;1.00;99.90;;;;;;22552687;26;20089;-37
2024/04/22 11:51:57;;;;;;;1.52;0.73;;;0.90;99.90;;;;;;22559804;26;20100;-36
2024/04/22 12:01:59;;;;;;;1.10;0.82;;;0.70;99.90;;;;;;22555240;26;20026;-36
2024/04/22 12:12:05;;;;;;;1.38;0.73;;;0.50;99.90;;;;;;22669096;26;20448;-37
2024/04/22 12:22:07;;;;;;;1.25;0.70;;;0.60;99.90;;;;;;22554006;26;20034;-36
2024/04/22 12:32:08;;;;;;;1.00;0.68;;;0.80;99.90;;;;;;22550770;26;20120;-37
2024/04/22 12:42:10;;;;;;;0.60;0.40;;;0.90;99.90;;;;;;22520569;26;20030;-37
2024/04/22 12:52:13;;;;;;;0.82;0.43;;;0.60;99.90;;;;;;22556765;26;20031;-35
2024/04/22 13:02:15;;;;;;;1.27;0.52;;;0.50;99.90;;;;;;22550512;26;20031;-37
2024/04/22 13:12:20;;;;;;;17.45;1.55;;;0.60;99.90;;;;;;22556166;26;20050;-36
2024/04/22 13:22:21;;;;;;;1.23;0.60;;;0.40;99.90;;;;;;22566838;26;20441;-36
2024/04/22 13:32:26;;;;;;;0.47;0.22;;;0.50;99.90;;;;;;22537443;26;20042;-36
2024/04/22 13:42:28;;;;;;;0.80;0.40;;;0.30;99.90;;;;;;22552564;26;20097;-37
2024/04/22 13:52:30;;;;;;;0.40;0.20;;;0.20;99.90;;;;;;22544143;26;20071;-37
2024/04/22 14:02:32;;;;;;;0.75;0.50;;;0.10;99.90;;;;;;22546437;26;20031;-36
2024/04/22 14:12:34;;;;;;;0.30;0.22;;;0.40;99.90;;;;;;22515163;26;20104;-37
2024/04/22 14:22:36;;;;;;;0.80;0.35;;;0.40;99.90;;;;;;22563095;26;20035;-37
2024/04/22 14:32:38;;;;;;;0.30;0.10;;;0.20;99.90;;;;;;22556812;26;20043;-36
2024/04/22 14:42:40;;;;;;;2.67;0.32;;;0.40;99.90;;;;;;22560709;26;20088;-36
2024/04/22 14:52:41;;;;;;;1.60;0.38;;;0.30;99.90;;;;;;22558560;26;20097;-36
2024/04/22 15:02:43;;;;;;;0.52;0.40;;;0.10;99.90;;;;;;22556329;26;20034;-37
2024/04/22 15:12:45;;;;;;;0.30;0.20;;;0.30;99.90;;;;;;22549366;26;20039;-37
2024/04/22 15:22:47;;;;;;;0.30;0.20;;;0.30;99.90;;;;;;22559419;26;20050;-37
2024/04/22 15:32:49;;;;;;;0.38;0.20;;;0.30;99.90;;;;;;22556981;26;20009;-37
2024/04/22 15:42:52;;;;;;;0.30;0.20;;;0.30;99.90;;;;;;22558716;26;20027;-37
2024/04/22 15:52:54;;;;;;;0.40;0.20;;;0.40;99.90;;;;;;22525004;26;20023;-37
2024/04/22 16:02:56;;;;;;;0.38;0.20;;;0.40;99.90;;;;;;22553297;26;20085;-37
2024/04/22 16:12:57;;;;;;;0.38;0.20;;;0.40;99.90;;;;;;22558440;26;20368;-37
2024/04/22 16:22:59;;;;;;;0.60;0.30;;;0.40;99.90;;;;;;22557085;26;20023;-37
2024/04/22 16:33:01;;;;;;;0.50;0.20;;;0.50;99.90;;;;;;22551267;26;20035;-37
2024/04/22 16:43:03;;;;;;;0.20;0.20;;;0.60;99.90;;;;;;22555444;26;20034;-37
2024/04/22 16:53:05;;;;;;;0.43;0.20;;;0.80;99.90;;;;;;22601799;26;20030;-37
2024/04/22 17:03:07;;;;;;;0.40;0.30;;;0.60;99.90;;;;;;22611602;26;20043;-37
2024/04/22 17:13:09;;;;;;;0.20;0.20;;;0.60;99.90;;;;;;22556147;26;20101;-37
2024/04/22 17:23:17;;;;;;;0.22;0.10;;;0.60;99.90;;;;;;22573282;26;20100;-37
2024/04/22 17:33:19;;;;;;;0.55;0.20;;;0.40;99.90;;;;;;22550690;26;20022;-37
2024/04/22 17:43:21;;;;;;;0.20;0.15;;;0.30;99.90;;;;;;22610297;26;20030;-37
2024/04/22 17:53:23;;;;;;;0.20;0.15;;;0.40;99.90;;;;;;22564919;26;20034;-46
2024/04/22 18:03:25;;;;;;;0.50;0.30;;;0.30;99.90;;;;;;22584203;26;20038;-45
2024/04/22 18:13:33;;;;;;;0.32;0.30;;;0.20;99.90;;;;;;22632491;26;20098;-44
2024/04/22 18:23:35;;;;;;;0.32;0.25;;;0.20;99.90;;;;;;22585545;26;20027;-45
2024/04/22 18:33:37;;;;;;;0.40;0.30;;;0.20;99.90;;;;;;22577105;26;20128;-44
2024/04/22 18:43:38;;;;;;;1.40;0.20;;;0.10;99.90;;;;;;22714935;26;20023;-44
2024/04/22 18:53:40;;;;;;;0.30;0.20;;;0.10;99.90;;;;;;22611118;26;20060;-44
2024/04/22 19:03:43;;;;;;;0.30;0.20;;;0.10;99.90;;;;;;22659016;26;20027;-45
2024/04/22 19:13:45;;;;;;;0.20;0.20;;;0.10;99.90;;;;;;22698041;26;20026;-44
2024/04/22 19:23:52;;;;;;;2.63;0.10;;;0.10;99.90;;;;;;22664984;26;20030;-43
2024/04/22 19:33:54;;;;;;;0.28;0.10;;;0.10;99.90;;;;;;22710660;26;20564;-43
2024/04/22 19:43:57;;;;;;;0.40;0.15;;;0.10;99.90;;;;;;22677127;26;20384;-43
2024/04/22 19:54:01;;;;;;;0.22;0.13;;;0.10;99.90;;;;;;22657103;26;20022;-43
2024/04/22 20:04:04;;;;;;;0.20;0.13;;;0.20;99.90;;;;;;22574076;26;20030;-44
2024/04/22 20:14:06;;;;;;;0.30;0.20;;;0.10;99.90;;;;;;22699007;26;20379;-44
2024/04/22 20:24:08;;;;;;;0.38;0.20;;;0.20;99.90;;;;;;22675845;26;20034;-43
2024/04/22 20:34:10;;;;;;;0.22;0.20;;;0.20;99.90;;;;;;22635804;26;20031;-45
2024/04/22 20:44:13;;;;;;;0.93;0.20;;;0.10;99.90;;;;;;22699289;26;20038;-44
2024/04/22 20:54:15;;;;;;;0.40;0.20;;;0.10;99.90;;;;;;22654427;26;20026;-44
2024/04/22 21:04:21;;;;;;;0.25;0.10;;;0.10;99.90;;;;;;22705719;26;20061;-42
2024/04/22 21:14:23;;;;;;;0.20;0.10;;;0.10;99.90;;;;;;22672217;26;20030;-43
2024/04/22 21:24:25;;;;;;;0.10;0.10;;;0.10;99.90;;;;;;22623616;26;20100;-45
2024/04/22 21:34:27;;;;;;;0.10;0.10;;;0.10;99.90;;;;;;22702686;26;20143;-43
2024/04/22 21:44:31;;;;;;;0.50;0.10;;;0.00;99.90;;;;;;22701831;26;20053;-42
2024/04/22 21:54:33;;;;;;;0.25;0.10;;;0.10;99.90;;;;;;22650702;26;20580;-46
2024/04/22 22:05:13;;;;;;;0.25;0.10;;;0.10;99.90;;;;;;22590745;26;20092;-43
2024/04/22 22:15:15;;;;;;;0.10;0.10;;;0.00;99.90;;;;;;22401745;26;20075;-45
2024/04/22 22:25:17;;;;;;;0.20;0.20;;;0.00;99.90;;;;;;22568604;26;20553;-43
2024/04/22 22:35:18;;;;;;;0.30;0.10;;;0.00;99.90;;;;;;22661510;26;20030;-43
2024/04/22 22:45:20;;;;;;;0.20;0.20;;;0.00;99.90;;;;;;22681397;26;20092;-45
2024/04/22 22:55:22;;;;;;;0.20;0.10;;;0.00;99.90;;;;;;22566515;26;20034;-43
2024/04/22 23:05:24;;;;;;;0.10;0.03;;;0.00;99.90;;;;;;22679409;26;20029;-45
2024/04/22 23:15:26;;;;;;;0.10;0.10;;;0.10;99.90;;;;;;22650327;26;20170;-45
2024/04/22 23:25:28;;;;;;;0.17;0.10;;;0.10;99.90;;;;;;22664439;26;20087;-43
2024/04/22 23:35:29;;;;;;;0.25;0.20;;;0.00;99.90;;;;;;22709518;26;20023;-45
2024/04/22 23:45:31;;;;;;;0.28;0.17;;;0.00;99.90;;;;;;22646994;26;20111;-44
2024/04/22 23:55:55;;;;;;;;;;;0.00;99.90;;;;;;22612444;26;20523;-42
